createdAt,value
2019-06-26T00:01:28.052Z,101296.88
2019-06-26T00:04:00.513Z,101299.16
2019-06-26T00:06:32.785Z,101303.06
2019-06-26T00:09:09.008Z,101299.97
2019-06-26T00:11:42.449Z,101306.83
2019-06-26T00:14:14.823Z,101308.70
2019-06-26T00:16:47.002Z,101311.81
2019-06-26T00:19:22.242Z,101313.41
2019-06-26T00:21:54.501Z,101317.58
2019-06-26T00:24:26.812Z,101313.16
2019-06-26T00:26:59.670Z,101318.21
2019-06-26T00:29:34.170Z,101319.20
2019-06-26T00:32:06.577Z,101312.77
2019-06-26T00:34:39.434Z,101305.58
2019-06-26T00:37:12.784Z,101313.69
2019-06-26T00:39:48.054Z,101310.61
2019-06-26T00:42:20.347Z,101312.45
2019-06-26T00:44:52.605Z,101310.73
2019-06-26T00:47:25.293Z,101310.09
2019-06-26T00:49:59.645Z,101307.20
2019-06-26T00:52:32.324Z,101310.73
2019-06-26T00:55:06.239Z,101307.61
2019-06-26T00:57:39.070Z,101307.89
2019-06-26T01:00:13.066Z,101299.88
2019-06-26T01:02:46.140Z,101304.39
2019-06-26T01:05:21.226Z,101306.16
2019-06-26T01:07:58.073Z,101311.17
2019-06-26T01:10:30.455Z,101303.03
2019-06-26T01:13:05.325Z,101311.77
2019-06-26T01:15:39.215Z,101313.05
2019-06-26T01:18:11.628Z,101315.52
2019-06-26T01:20:44.940Z,101318.10
2019-06-26T01:23:17.414Z,101318.78
2019-06-26T01:25:49.718Z,101324.91
2019-06-26T01:28:22.874Z,101321.64
2019-06-26T01:30:55.195Z,101320.30
2019-06-26T01:33:27.585Z,101322.98
2019-06-26T01:35:59.865Z,101319.28
2019-06-26T01:38:32.246Z,101328.34
2019-06-26T01:41:04.660Z,101325.09
2019-06-26T01:43:37.002Z,101325.03
2019-06-26T01:46:10.581Z,101325.98
2019-06-26T01:48:43.060Z,101325.88
2019-06-26T01:51:15.422Z,101331.30
2019-06-26T01:53:48.748Z,101327.28
2019-06-26T01:56:21.058Z,101328.66
2019-06-26T01:58:53.451Z,101326.27
2019-06-26T02:01:26.014Z,101330.59
2019-06-26T02:03:58.954Z,101335.41
2019-06-26T02:06:31.320Z,101336.93
2019-06-26T02:09:05.089Z,101332.84
2019-06-26T02:11:37.890Z,101333.09
2019-06-26T02:14:11.802Z,101327.80
2019-06-26T02:16:45.410Z,101321.97
2019-06-26T02:19:19.239Z,101319.56
2019-06-26T02:21:53.769Z,101326.22
2019-06-26T02:24:26.128Z,101324.20
2019-06-26T02:26:58.525Z,101321.52
2019-06-26T02:29:30.946Z,101319.69
2019-06-26T02:32:03.278Z,101322.16
2019-06-26T02:34:36.185Z,101323.55
2019-06-26T02:37:09.961Z,101315.64
2019-06-26T02:39:42.378Z,101321.26
2019-06-26T02:42:16.093Z,101321.04
2019-06-26T02:44:53.743Z,101319.62
2019-06-26T02:47:22.661Z,101316.83
2019-06-26T02:49:54.980Z,101316.20
2019-06-26T02:52:28.278Z,101316.23
2019-06-26T02:55:00.605Z,101312.20
2019-06-26T02:57:33.152Z,101319.21
2019-06-26T03:00:07.610Z,101315.13
2019-06-26T03:02:41.254Z,101316.95
2019-06-26T03:05:14.290Z,101315.50
2019-06-26T03:07:48.707Z,101313.01
2019-06-26T03:10:21.104Z,101309.95
2019-06-26T03:12:54.535Z,101315.81
2019-06-26T03:15:31.111Z,101319.94
2019-06-26T03:18:03.508Z,101323.94
2019-06-26T03:20:41.678Z,101322.48
2019-06-26T03:23:16.842Z,101315.10
2019-06-26T03:25:49.213Z,101314.16
2019-06-26T03:28:21.962Z,101320.08
2019-06-26T03:30:54.277Z,101312.09
2019-06-26T03:33:27.704Z,101318.65
2019-06-26T03:36:00.008Z,101312.09
2019-06-26T03:38:32.369Z,101311.31
2019-06-26T03:41:04.777Z,101317.92
2019-06-26T03:43:38.234Z,101318.30
2019-06-26T03:46:10.507Z,101324.19
2019-06-26T03:48:42.870Z,101320.63
2019-06-26T03:51:16.772Z,101316.60
2019-06-26T03:53:49.079Z,101313.22
2019-06-26T03:56:22.935Z,101309.36
2019-06-26T03:58:56.450Z,101304.95
2019-06-26T04:01:29.817Z,101310.85
2019-06-26T04:04:02.079Z,101312.55
2019-06-26T04:06:34.444Z,101317.09
2019-06-26T04:09:07.270Z,101322.15
2019-06-26T04:11:41.106Z,101320.27
2019-06-26T04:14:13.401Z,101320.42
2019-06-26T04:16:47.216Z,101316.67
2019-06-26T04:19:19.654Z,101320.22
2019-06-26T04:21:51.937Z,101310.08
2019-06-26T04:24:26.158Z,101312.78
2019-06-26T04:27:00.063Z,101317.85
2019-06-26T04:29:35.095Z,101321.16
2019-06-26T04:32:07.507Z,101319.58
2019-06-26T04:34:39.927Z,101321.37
2019-06-26T04:37:12.295Z,101323.03
2019-06-26T04:39:44.630Z,101325.42
2019-06-26T04:42:16.975Z,101328.53
2019-06-26T04:44:50.919Z,101330.80
2019-06-26T04:47:24.817Z,101329.66
2019-06-26T04:49:58.065Z,101326.26
2019-06-26T04:52:32.178Z,101337.22
2019-06-26T04:55:10.500Z,101330.97
2019-06-26T04:57:42.941Z,101331.16
2019-06-26T05:00:17.347Z,101333.38
2019-06-26T05:02:49.672Z,101327.28
2019-06-26T05:05:38.184Z,101329.29
2019-06-26T05:07:56.093Z,101335.53
2019-06-26T05:10:28.538Z,101335.56
2019-06-26T05:13:00.979Z,101343.54
2019-06-26T05:15:33.604Z,101346.56
2019-06-26T05:18:06.033Z,101345.91
2019-06-26T05:20:39.258Z,101349.61
2019-06-26T05:23:11.613Z,101342.50
2019-06-26T05:25:43.848Z,101344.48
2019-06-26T05:28:16.193Z,101341.45
2019-06-26T05:30:53.533Z,101349.25
2019-06-26T05:33:26.018Z,101351.95
2019-06-26T05:35:58.864Z,101347.19
2019-06-26T05:38:31.091Z,101352.02
2019-06-26T05:41:03.954Z,101349.09
2019-06-26T05:43:37.890Z,101353.95
2019-06-26T05:46:11.803Z,101352.04
2019-06-26T05:48:45.238Z,101346.91
2019-06-26T05:51:17.469Z,101347.37
2019-06-26T05:53:49.957Z,101334.95
2019-06-26T07:25:57.284Z,101315.63
2019-06-26T07:28:30.267Z,101322.48
2019-06-26T07:31:02.631Z,101319.77
2019-06-26T07:33:34.939Z,101319.46
2019-06-26T07:36:07.420Z,101321.66
2019-06-26T07:38:39.913Z,101320.41
2019-06-26T07:41:12.308Z,101321.89
2019-06-26T07:43:44.565Z,101313.33
2019-06-26T07:46:16.873Z,101317.48
2019-06-26T07:48:49.164Z,101317.80
2019-06-26T07:51:21.698Z,101302.48
2019-06-26T07:53:54.158Z,101314.41
2019-06-26T07:56:26.414Z,101314.80
2019-06-26T07:58:59.947Z,101313.09
2019-06-26T08:01:33.820Z,101322.75
2019-06-26T08:04:08.273Z,101315.00
2019-06-26T08:06:40.808Z,101319.98
2019-06-26T08:09:13.817Z,101309.34
2019-06-26T08:11:46.151Z,101308.13
2019-06-26T08:14:20.072Z,101304.88
2019-06-26T08:16:52.451Z,101288.50
2019-06-26T08:19:26.217Z,101304.69
2019-06-26T08:22:01.718Z,101302.57
2019-06-26T08:24:34.013Z,101289.88
2019-06-26T08:27:06.449Z,101294.08
2019-06-26T08:29:39.882Z,101299.15
2019-06-26T08:32:12.239Z,101296.16
2019-06-26T08:34:44.677Z,101292.56
2019-06-26T08:37:18.805Z,101289.11
2019-06-26T08:39:51.446Z,101288.48
2019-06-26T08:42:23.840Z,101293.00
2019-06-26T08:44:57.665Z,101287.16
2019-06-26T08:47:32.987Z,101286.36
2019-06-26T08:50:10.725Z,101273.55
2019-06-26T08:52:44.692Z,101264.84
2019-06-26T08:55:17.674Z,101269.86
2019-06-26T08:57:50.029Z,101268.17
2019-06-26T09:00:24.784Z,101271.75
2019-06-26T09:02:57.193Z,101266.45
2019-06-26T09:05:43.526Z,101261.51
2019-06-26T09:08:03.849Z,101266.10
2019-06-26T09:10:36.865Z,101262.24
2019-06-26T09:13:10.107Z,101259.07
2019-06-26T09:15:42.393Z,101258.61
2019-06-26T09:18:14.745Z,101248.02
2019-06-26T09:20:47.169Z,101247.66
2019-06-26T09:23:21.054Z,101248.61
2019-06-26T09:25:53.473Z,101253.82
2019-06-26T09:28:26.543Z,101248.14
2019-06-26T09:30:58.900Z,101243.17
2019-06-26T09:33:32.554Z,101245.27
2019-06-26T09:36:06.971Z,101242.33
2019-06-26T09:38:39.832Z,101239.16
2019-06-26T09:41:12.307Z,101232.68
2019-06-26T09:43:44.678Z,101236.37
2019-06-26T09:46:17.102Z,101239.86
2019-06-26T09:48:53.215Z,101231.45
2019-06-26T09:51:23.932Z,101230.67
2019-06-26T09:53:56.331Z,101226.25
2019-06-26T09:56:28.660Z,101220.59
2019-06-26T09:59:01.130Z,101224.36
2019-06-26T10:01:35.171Z,101224.88
2019-06-26T10:04:09.686Z,101228.19
2019-06-26T10:06:42.342Z,101215.75
2019-06-26T10:09:15.424Z,101212.52
2019-06-26T10:11:49.843Z,101212.72
2019-06-26T10:14:23.135Z,101215.55
2019-06-26T10:16:55.554Z,101212.30
2019-06-26T10:19:28.067Z,101219.70
2019-06-26T10:22:01.663Z,101222.69
2019-06-26T10:24:33.937Z,101215.12
2019-06-26T10:27:08.639Z,101205.58
2019-06-26T10:29:40.934Z,101197.77
2019-06-26T10:32:15.419Z,101204.31
2019-06-26T10:34:49.663Z,101203.97
2019-06-26T10:37:23.792Z,101187.84
2019-06-26T10:39:56.148Z,101196.14
2019-06-26T10:42:28.727Z,101194.11
2019-06-26T10:45:01.767Z,101200.66
2019-06-26T10:47:35.022Z,101200.45
2019-06-26T10:50:24.157Z,101190.88
2019-06-26T10:52:59.420Z,101187.08
2019-06-26T10:55:31.743Z,101188.98
2019-06-26T10:58:04.084Z,101179.94
2019-06-26T11:00:41.404Z,101178.92
2019-06-26T11:03:13.757Z,101176.20
2019-06-26T11:05:48.827Z,101178.26
2019-06-26T11:08:20.437Z,101172.63
2019-06-26T11:10:53.046Z,101162.60
2019-06-26T11:13:26.961Z,101162.69
2019-06-26T11:15:59.492Z,101159.76
2019-06-26T11:18:33.467Z,101154.52
2019-06-26T11:21:08.415Z,101156.45
2019-06-26T11:23:43.507Z,101155.37
2019-06-26T11:26:15.985Z,101156.80
2019-06-26T11:28:51.329Z,101153.91
2019-06-26T11:31:25.323Z,101147.56
2019-06-26T11:34:16.660Z,101137.03
2019-06-26T11:37:02.643Z,101138.71
2019-06-26T11:39:24.543Z,101145.63
2019-06-26T11:41:56.913Z,101148.22
2019-06-26T11:44:29.530Z,101139.75
2019-06-26T11:47:01.826Z,101135.37
2019-06-26T11:49:40.658Z,101137.47
2019-06-26T11:52:18.303Z,101142.29
2019-06-26T11:55:01.897Z,101134.66
2019-06-26T11:57:27.378Z,101137.42
2019-06-26T12:00:02.070Z,101130.97
2019-06-26T12:02:36.064Z,101133.78
2019-06-26T12:05:24.760Z,101123.22
2019-06-26T12:07:57.247Z,101129.20
2019-06-26T12:10:32.183Z,101126.47
2019-06-26T12:13:06.162Z,101117.79
2019-06-26T12:15:38.566Z,101120.27
2019-06-26T12:18:10.917Z,101125.19
2019-06-26T12:20:44.549Z,101119.36
2019-06-26T12:23:34.605Z,101111.00
2019-06-26T12:26:07.555Z,101099.30
2019-06-26T12:28:57.551Z,101107.33
2019-06-26T12:31:43.618Z,101109.52
2019-06-26T12:34:33.682Z,101093.72
2019-06-26T12:37:07.056Z,101094.89
2019-06-26T12:39:40.457Z,101090.63
2019-06-26T12:42:29.002Z,101091.69
2019-06-26T12:45:17.814Z,101089.94
2019-06-26T12:48:09.444Z,101079.35
2019-06-26T12:50:42.035Z,101080.99
2019-06-26T12:53:30.588Z,101071.79
2019-06-26T12:56:21.551Z,101080.97
2019-06-26T12:59:10.439Z,101065.38
2019-06-26T13:01:46.403Z,101067.25
2019-06-26T13:04:18.886Z,101068.22
2019-06-26T13:06:53.112Z,101062.08
2019-06-26T13:09:26.381Z,101058.95
2019-06-26T13:12:00.592Z,101060.45
2019-06-26T13:14:34.659Z,101062.65
2019-06-26T13:17:10.330Z,101054.80
2019-06-26T13:19:44.572Z,101059.50
2019-06-26T13:22:17.002Z,101053.73
2019-06-26T13:24:50.805Z,101043.28
2019-06-26T13:27:23.308Z,101045.99
2019-06-26T13:29:56.627Z,101040.36
2019-06-26T13:32:30.591Z,101039.60
2019-06-26T13:35:05.483Z,101034.36
2019-06-26T13:37:38.909Z,101037.69
2019-06-26T13:40:11.826Z,101029.05
2019-06-26T13:42:49.971Z,101024.73
2019-06-26T13:45:23.767Z,101021.95
2019-06-26T13:47:57.458Z,101020.66
2019-06-26T13:50:29.895Z,101017.52
2019-06-26T13:53:03.713Z,101010.27
2019-06-26T13:55:36.052Z,101006.00
2019-06-26T13:58:08.510Z,101008.31
2019-06-26T14:00:42.283Z,101000.06
2019-06-26T14:03:15.465Z,100991.80
2019-06-26T14:05:49.435Z,100987.72
2019-06-26T14:08:23.371Z,100994.20
2019-06-26T14:10:55.833Z,100983.23
2019-06-26T14:13:28.873Z,100979.16
2019-06-26T14:16:01.828Z,100975.38
2019-06-26T14:18:34.191Z,100970.57
2019-06-26T14:21:06.590Z,100975.59
2019-06-26T14:23:41.177Z,100972.98
2019-06-26T14:26:15.718Z,100969.72
2019-06-26T14:28:48.160Z,100967.88
2019-06-26T14:31:21.427Z,100966.52
2019-06-26T14:34:11.829Z,100959.70
2019-06-26T14:36:44.216Z,100961.08
2019-06-26T14:39:18.862Z,100961.91
2019-06-26T14:41:51.462Z,100955.23
2019-06-26T14:44:25.290Z,100955.21
2019-06-26T14:46:57.683Z,100953.12
2019-06-26T14:49:31.580Z,100953.25
2019-06-26T14:52:04.055Z,100951.97
2019-06-26T14:54:36.506Z,100952.59
2019-06-26T14:57:10.398Z,100949.05
2019-06-26T14:59:43.873Z,100945.89
2019-06-26T15:02:19.071Z,100947.23
2019-06-26T15:04:52.115Z,100950.95
2019-06-26T15:07:25.898Z,100942.76
2019-06-26T15:09:59.506Z,100945.85
2019-06-26T15:12:32.444Z,100945.44
2019-06-26T15:15:05.563Z,100945.02
2019-06-26T15:17:37.897Z,100949.33
2019-06-26T15:20:13.069Z,100940.74
2019-06-26T15:22:46.602Z,100938.58
2019-06-26T15:25:23.284Z,100937.53
2019-06-26T15:27:56.859Z,100934.89
2019-06-26T15:30:30.820Z,100931.55
2019-06-26T15:33:04.843Z,100930.05
2019-06-26T15:35:37.179Z,100930.56
2019-06-26T15:38:09.526Z,100928.17
2019-06-26T15:40:41.892Z,100926.25
2019-06-26T15:43:14.294Z,100923.50
2019-06-26T15:45:46.741Z,100926.69
2019-06-26T15:48:19.561Z,100923.62
2019-06-26T15:50:51.867Z,100919.13
2019-06-26T15:53:24.201Z,100922.25
2019-06-26T15:55:58.832Z,100924.23
2019-06-26T15:58:31.173Z,100923.61
2019-06-26T16:01:03.633Z,100919.02
2019-06-26T16:03:37.597Z,100918.19
2019-06-26T16:06:11.341Z,100916.27
2019-06-26T16:08:43.970Z,100907.24
2019-06-26T16:11:16.821Z,100900.63
2019-06-26T16:13:51.652Z,100904.27
2019-06-26T16:16:25.808Z,100903.48
2019-06-26T16:19:06.812Z,100907.29
2019-06-26T16:21:40.637Z,100902.27
2019-06-26T16:24:12.933Z,100907.38
2019-06-26T16:26:45.874Z,100906.48
2019-06-26T16:29:19.649Z,100901.78
2019-06-26T16:31:53.718Z,100906.59
2019-06-26T16:34:27.214Z,100903.62
2019-06-26T16:37:01.142Z,100901.05
2019-06-26T16:39:33.515Z,100898.30
2019-06-26T16:42:05.915Z,100907.41
2019-06-26T16:44:42.230Z,100905.78
2019-06-26T16:47:14.674Z,100905.19
2019-06-26T16:49:50.552Z,100908.54
2019-06-26T16:52:24.261Z,100907.83
2019-06-26T16:55:00.438Z,100902.38
2019-06-26T16:57:33.359Z,100901.66
2019-06-26T17:00:10.525Z,100904.19
2019-06-26T17:02:44.584Z,100908.75
2019-06-26T17:05:18.365Z,100904.67
2019-06-26T17:07:50.912Z,100899.36
2019-06-26T17:10:24.266Z,100901.30
2019-06-26T17:12:57.010Z,100903.06
2019-06-26T17:15:29.547Z,100901.10
2019-06-26T17:18:02.165Z,100899.19
2019-06-26T17:20:35.785Z,100900.31
2019-06-26T17:23:09.225Z,100900.91
2019-06-26T17:25:43.698Z,100899.13
2019-06-26T17:28:16.106Z,100907.95
2019-06-26T17:30:54.139Z,100906.14
2019-06-26T17:33:26.760Z,100911.47
2019-06-26T17:36:00.066Z,100910.19
2019-06-26T17:38:32.553Z,100905.89
2019-06-26T17:41:05.045Z,100906.97
2019-06-26T17:43:37.805Z,100898.23
2019-06-26T17:46:10.461Z,100906.39
2019-06-26T17:48:42.953Z,100909.15
2019-06-26T17:51:17.452Z,100906.50
2019-06-26T17:53:52.420Z,100908.23
2019-06-26T17:56:28.329Z,100896.81
2019-06-26T17:59:01.048Z,100906.30
2019-06-26T18:01:37.887Z,100906.00
2019-06-26T18:04:10.365Z,100908.55
2019-06-26T18:06:45.890Z,100904.40
2019-06-26T18:09:18.309Z,100906.44
2019-06-26T18:11:52.069Z,100908.80
2019-06-26T18:14:24.616Z,100909.34
2019-06-26T18:16:58.659Z,100907.98
2019-06-26T18:19:32.520Z,100909.69
2019-06-26T18:22:05.178Z,100906.69
2019-06-26T18:24:37.907Z,100905.36
2019-06-26T18:27:10.492Z,100908.55
2019-06-26T18:29:43.136Z,100905.88
2019-06-26T18:32:17.999Z,100904.71
2019-06-26T18:34:53.364Z,100905.21
2019-06-26T18:37:26.904Z,100905.90
2019-06-26T18:40:00.129Z,100910.11
2019-06-26T18:42:32.902Z,100905.22
2019-06-26T18:45:07.043Z,100909.27
2019-06-26T18:47:42.958Z,100912.12
2019-06-26T18:50:16.286Z,100907.43
2019-06-26T18:52:51.739Z,100903.55
2019-06-26T18:55:24.605Z,100904.89
2019-06-26T18:57:57.273Z,100902.55
2019-06-26T19:00:31.396Z,100903.90
2019-06-26T19:03:05.393Z,100895.48
2019-06-26T19:05:38.642Z,100891.27
2019-06-26T19:08:11.671Z,100888.37
2019-06-26T19:10:45.125Z,100890.06
2019-06-26T19:13:20.583Z,100885.38
2019-06-26T19:15:55.088Z,100878.98
2019-06-26T19:18:29.788Z,100880.81
2019-06-26T19:21:08.144Z,100882.50
2019-06-26T19:23:43.987Z,100882.48
2019-06-26T19:26:18.669Z,100881.33
2019-06-26T19:28:55.189Z,100875.09
2019-06-26T19:31:27.612Z,100878.30
2019-06-26T19:34:02.309Z,100881.13
2019-06-26T19:36:49.034Z,100886.34
2019-06-26T19:39:08.922Z,100883.97
2019-06-26T19:41:42.953Z,100880.78
2019-06-26T19:44:15.407Z,100880.77
2019-06-26T19:46:47.927Z,100883.80
2019-06-26T19:49:22.637Z,100884.64
2019-06-26T19:51:55.246Z,100878.19
2019-06-26T19:54:32.048Z,100879.53
2019-06-26T19:57:02.975Z,100876.84
2019-06-26T19:59:38.251Z,100880.55
2019-06-26T20:02:11.798Z,100881.22
2019-06-26T20:04:48.395Z,100882.06
2019-06-26T20:07:23.591Z,100877.16
2019-06-26T20:10:01.569Z,100878.48
2019-06-26T20:12:33.232Z,100874.28
2019-06-26T20:15:08.089Z,100878.82
2019-06-26T20:17:43.149Z,100882.69
2019-06-26T20:20:16.825Z,100880.81
2019-06-26T20:22:51.161Z,100877.45
2019-06-26T20:25:26.161Z,100871.91
2019-06-26T20:27:59.368Z,100876.11
2019-06-26T20:30:34.348Z,100869.19
2019-06-26T20:33:06.768Z,100867.68
2019-06-26T20:35:39.088Z,100862.47
2019-06-26T20:38:11.862Z,100867.68
2019-06-26T20:40:46.184Z,100867.48
2019-06-26T20:43:20.487Z,100863.95
2019-06-26T20:45:53.004Z,100867.45
2019-06-26T20:48:27.783Z,100868.28
2019-06-26T20:51:01.701Z,100860.53
2019-06-26T20:53:34.408Z,100863.88
2019-06-26T20:56:08.815Z,100865.73
2019-06-26T20:58:41.465Z,100863.20
2019-06-26T21:01:13.827Z,100856.97
2019-06-26T21:03:46.313Z,100854.61
2019-06-26T21:09:24.134Z,100858.77
2019-06-26T21:15:00.524Z,100854.84
2019-06-26T21:17:37.747Z,100859.08
2019-06-26T21:20:14.870Z,100856.95
2019-06-26T21:22:53.288Z,100859.88
2019-06-26T21:25:30.977Z,100857.02
2019-06-26T21:28:10.369Z,100863.07
2019-06-26T21:30:47.201Z,100872.87
2019-06-26T21:33:25.389Z,100864.75
2019-06-26T21:36:05.021Z,100859.58
2019-06-26T21:38:41.070Z,100856.77
2019-06-26T21:41:20.907Z,100851.20
2019-06-26T21:43:54.539Z,100853.20
2019-06-26T21:46:31.722Z,100851.23
2019-06-26T21:49:07.015Z,100850.93
2019-06-26T21:51:40.434Z,100852.70
2019-06-26T21:54:17.684Z,100845.55
2019-06-26T21:57:09.769Z,100835.64
2019-06-26T22:00:01.415Z,100835.26
2019-06-26T22:02:52.703Z,100841.64
2019-06-26T22:05:27.162Z,100836.09
2019-06-26T22:08:17.320Z,100833.58
2019-06-26T22:10:57.002Z,100835.91
2019-06-26T22:13:30.026Z,100832.50
2019-06-26T22:16:02.371Z,100830.91
2019-06-26T22:18:34.765Z,100830.86
2019-06-26T22:21:07.276Z,100828.49
2019-06-26T22:23:39.709Z,100827.23
2019-06-26T22:26:14.313Z,100832.51
2019-06-26T22:28:48.810Z,100823.37
2019-06-26T22:31:23.727Z,100819.97
2019-06-26T22:33:58.365Z,100818.44
2019-06-26T22:36:32.699Z,100811.83
2019-06-26T22:39:06.301Z,100817.20
2019-06-26T22:41:38.721Z,100822.07
2019-06-26T22:44:12.665Z,100818.42
2019-06-26T22:46:44.957Z,100825.25
2019-06-26T22:49:17.660Z,100820.47
2019-06-26T22:51:49.938Z,100822.16
2019-06-26T22:54:22.366Z,100813.59
2019-06-26T22:56:54.841Z,100804.16
2019-06-26T22:59:28.205Z,100800.79
2019-06-26T23:02:00.558Z,100798.67
2019-06-26T23:04:32.955Z,100795.66
2019-06-26T23:07:05.340Z,100793.73
2019-06-26T23:09:37.782Z,100788.91
2019-06-26T23:12:10.105Z,100783.71
2019-06-26T23:14:42.504Z,100782.87
2019-06-26T23:17:14.946Z,100782.37
2019-06-26T23:19:47.355Z,100791.66
2019-06-26T23:22:19.742Z,100782.23
2019-06-26T23:24:52.267Z,100782.47
2019-06-26T23:27:24.708Z,100782.37
2019-06-26T23:29:57.134Z,100784.53
2019-06-26T23:32:29.685Z,100784.73
2019-06-26T23:35:02.752Z,100778.81
2019-06-26T23:37:35.143Z,100779.89
2019-06-26T23:40:08.182Z,100785.45
2019-06-26T23:42:40.482Z,100774.14
2019-06-26T23:45:12.960Z,100764.53
2019-06-26T23:47:45.795Z,100762.28
2019-06-26T23:50:18.324Z,100768.56
2019-06-26T23:52:52.491Z,100767.33
2019-06-26T23:55:24.805Z,100764.56
2019-06-26T23:57:59.354Z,100753.13
